createdAt,value
2023-01-13T00:02:06.458Z,8.43
2023-01-13T00:04:33.367Z,8.43
2023-01-13T00:07:00.251Z,8.47
2023-01-13T00:09:26.955Z,8.47
2023-01-13T00:11:53.708Z,8.44
2023-01-13T00:14:20.515Z,8.38
2023-01-13T00:16:47.262Z,8.37
2023-01-13T00:19:13.980Z,8.26
2023-01-13T00:21:40.744Z,8.19
2023-01-13T00:24:07.458Z,8.18
2023-01-13T00:26:35.923Z,8.21
2023-01-13T00:29:02.876Z,8.28
2023-01-13T00:31:30.484Z,8.24
2023-01-13T00:33:59.202Z,8.36
2023-01-13T00:36:26.504Z,8.45
2023-01-13T00:38:53.591Z,8.43
2023-01-13T00:41:23.087Z,8.46
2023-01-13T00:43:50.537Z,8.49
2023-01-13T00:46:20.285Z,8.52
2023-01-13T00:48:47.690Z,8.55
2023-01-13T00:51:20.539Z,8.54
2023-01-13T00:53:49.644Z,8.46
2023-01-13T00:56:18.114Z,8.42
2023-01-13T00:58:46.079Z,8.38
2023-01-13T01:01:24.508Z,8.38
2023-01-13T01:03:53.643Z,8.33
2023-01-13T01:06:23.328Z,8.33
2023-01-13T01:08:51.246Z,8.31
2023-01-13T01:11:21.300Z,8.29
2023-01-13T01:13:48.763Z,8.29
2023-01-13T01:16:18.059Z,8.33
2023-01-13T01:18:47.118Z,8.38
2023-01-13T01:21:14.323Z,8.43
2023-01-13T01:23:41.426Z,8.44
2023-01-13T01:26:18.325Z,8.42
2023-01-13T01:28:45.399Z,8.41
2023-01-13T01:31:18.278Z,8.31
2023-01-13T01:33:46.650Z,8.36
2023-01-13T01:36:15.386Z,8.35
2023-01-13T01:38:42.349Z,8.28
2023-01-13T01:41:15.178Z,8.29
2023-01-13T01:43:59.269Z,8.33
2023-01-13T01:46:27.478Z,8.35
2023-01-13T01:48:58.835Z,8.40
2023-01-13T01:51:25.805Z,8.41
2023-01-13T01:53:55.388Z,8.40
2023-01-13T01:56:22.334Z,8.51
2023-01-13T01:58:51.980Z,8.55
2023-01-13T02:01:18.920Z,8.54
2023-01-13T02:03:58.489Z,8.57
2023-01-13T02:06:25.449Z,8.43
2023-01-13T02:08:53.052Z,8.46
2023-01-13T02:11:52.877Z,8.41
2023-01-13T02:14:23.822Z,8.43
2023-01-13T02:17:09.506Z,8.48
2023-01-13T02:20:17.543Z,8.49
2023-01-13T02:23:08.901Z,8.41
2023-01-13T02:25:59.752Z,8.35
2023-01-13T02:29:14.702Z,8.42
2023-01-13T02:31:45.087Z,8.40
2023-01-13T02:34:11.788Z,8.41
2023-01-13T02:36:49.766Z,8.42
2023-01-13T02:39:29.898Z,8.40
2023-01-13T02:42:25.337Z,8.37
2023-01-13T02:44:59.480Z,8.39
2023-01-13T02:47:28.542Z,8.41
2023-01-13T02:50:00.675Z,8.43
2023-01-13T02:52:38.912Z,8.41
2023-01-13T02:55:19.808Z,8.42
2023-01-13T02:57:48.585Z,8.38
2023-01-13T03:00:17.055Z,8.40
2023-01-13T03:02:44.028Z,8.39
2023-01-13T03:05:15.747Z,8.26
2023-01-13T03:07:55.737Z,8.16
2023-01-13T03:10:49.823Z,8.19
2023-01-13T03:13:16.689Z,8.26
2023-01-13T03:16:01.725Z,8.33
2023-01-13T03:18:56.015Z,8.41
2023-01-13T03:21:37.749Z,8.46
2023-01-13T03:24:17.116Z,8.51
2023-01-13T03:26:59.253Z,8.54
2023-01-13T03:29:32.277Z,8.54
2023-01-13T03:32:02.387Z,8.51
2023-01-13T03:34:35.875Z,8.55
2023-01-13T03:37:05.557Z,8.57
2023-01-13T03:39:36.716Z,8.60
2023-01-13T03:42:15.177Z,8.59
2023-01-13T03:44:51.588Z,8.58
2023-01-13T03:47:41.473Z,8.63
2023-01-13T03:50:14.380Z,8.73
2023-01-13T03:52:47.714Z,8.67
2023-01-13T03:55:22.744Z,8.58
2023-01-13T03:58:01.305Z,8.47
2023-01-13T04:00:36.437Z,8.45
2023-01-13T04:03:13.563Z,8.50
2023-01-13T04:05:45.965Z,8.47
2023-01-13T04:08:21.335Z,8.36
2023-01-13T04:11:26.705Z,8.29
2023-01-13T04:13:55.342Z,8.28
2023-01-13T04:16:22.332Z,8.21
2023-01-13T04:18:50.257Z,8.10
2023-01-13T04:21:17.058Z,8.08
2023-01-13T04:23:43.848Z,8.13
2023-01-13T04:26:10.764Z,8.14
2023-01-13T04:28:37.573Z,8.15
2023-01-13T04:31:04.356Z,8.23
2023-01-13T04:33:31.151Z,8.26
2023-01-13T04:35:57.896Z,8.28
2023-01-13T04:38:24.660Z,8.35
2023-01-13T04:40:51.400Z,8.38
2023-01-13T04:43:18.253Z,8.29
2023-01-13T04:45:45.303Z,8.24
2023-01-13T04:48:12.975Z,8.27
2023-01-13T04:50:40.315Z,8.39
2023-01-13T04:53:07.390Z,8.46
2023-01-13T04:55:35.344Z,8.47
2023-01-13T04:58:04.663Z,8.46
2023-01-13T05:00:32.081Z,8.53
2023-01-13T05:02:59.558Z,8.59
2023-01-13T05:05:27.579Z,8.67
2023-01-13T05:07:54.436Z,8.82
2023-01-13T05:10:23.888Z,8.80
2023-01-13T05:13:10.155Z,8.76
2023-01-13T05:15:55.447Z,8.73
2023-01-13T05:18:22.386Z,8.77
2023-01-13T05:20:50.079Z,8.73
2023-01-13T05:23:35.279Z,8.76
2023-01-13T05:26:02.461Z,8.78
2023-01-13T20:55:16.414Z,9.57
2023-01-13T20:57:54.800Z,9.63
2023-01-13T21:00:23.108Z,9.57
2023-01-13T21:02:51.120Z,9.51
2023-01-13T21:05:18.307Z,9.56
2023-01-13T21:07:45.444Z,9.59
2023-01-13T21:10:13.062Z,9.35
2023-01-13T21:12:59.077Z,9.33
2023-01-13T21:15:27.943Z,9.37
2023-01-13T21:18:13.794Z,9.23
2023-01-13T21:20:42.198Z,9.33
2023-01-13T21:23:13.138Z,9.19
2023-01-13T21:25:42.015Z,9.16
2023-01-13T21:28:15.285Z,9.19
2023-01-13T21:30:45.895Z,9.08
2023-01-13T21:33:16.655Z,9.09
2023-01-13T21:35:47.165Z,9.16
2023-01-13T21:38:14.345Z,9.09
2023-01-13T21:41:08.632Z,9.14
2023-01-13T21:43:56.152Z,9.23
2023-01-13T21:46:43.063Z,9.24
2023-01-13T21:49:10.224Z,9.04
2023-01-13T21:51:37.721Z,9.04
2023-01-13T21:54:07.478Z,9.08
2023-01-13T21:56:35.783Z,9.28
2023-01-13T21:59:05.575Z,9.27
2023-01-13T22:01:36.350Z,9.12
2023-01-13T22:04:22.534Z,9.12
2023-01-13T22:06:49.471Z,8.97
2023-01-13T22:09:17.124Z,8.76
2023-01-13T22:11:44.055Z,8.87
2023-01-13T22:14:11.205Z,8.86
2023-01-13T22:16:41.920Z,8.77
2023-01-13T22:19:10.582Z,8.76
2023-01-13T22:21:38.179Z,8.57
2023-01-13T22:24:05.437Z,8.40
2023-01-13T22:26:32.415Z,8.50
2023-01-13T22:28:59.314Z,8.47
2023-01-13T22:31:26.199Z,8.58
2023-01-13T22:33:55.250Z,8.57
2023-01-13T22:36:26.549Z,8.53
2023-01-13T22:38:56.865Z,8.61
2023-01-13T22:41:23.845Z,8.68
2023-01-13T22:43:59.869Z,8.75
2023-01-13T22:46:26.960Z,8.78
2023-01-13T22:48:56.055Z,8.64
2023-01-13T22:51:23.283Z,8.69
2023-01-13T22:53:50.328Z,8.70
2023-01-13T22:56:22.778Z,8.70
2023-01-13T22:59:00.211Z,8.77
2023-01-13T23:01:29.647Z,8.62
2023-01-13T23:03:59.960Z,8.61
2023-01-13T23:06:29.008Z,8.61
2023-01-13T23:08:56.680Z,8.56
2023-01-13T23:11:26.705Z,8.57
2023-01-13T23:13:59.363Z,8.60
2023-01-13T23:16:28.050Z,8.55
2023-01-13T23:18:55.219Z,8.40
2023-01-13T23:21:26.174Z,8.30
2023-01-13T23:23:54.206Z,8.15
2023-01-13T23:26:22.036Z,8.15
2023-01-13T23:28:49.240Z,8.06
2023-01-13T23:31:21.156Z,8.01
2023-01-13T23:33:48.959Z,8.08
2023-01-13T23:36:21.776Z,8.17
2023-01-13T23:38:48.803Z,8.22
2023-01-13T23:41:17.844Z,8.23
2023-01-13T23:43:56.722Z,8.19
2023-01-13T23:46:24.478Z,7.93
2023-01-13T23:48:52.049Z,8.12
2023-01-13T23:51:21.418Z,8.18
2023-01-13T23:53:50.140Z,8.26
2023-01-13T23:56:23.666Z,8.30
2023-01-13T23:58:51.305Z,8.38
